»·PEaware :: N122G KLAX-KSBP

N122G :: KLAX-KSBP

FLIGHT INFORMATION

Flight Status: Arrived
Operator: Privately registered:
United States
More flights under this callsign
Pilot: Anonymous 10623 (10623)
Aircraft: Unknown
(EPIC)
More flights by this aircraft type
Origin: KLAX Los Angeles Intl
United States
Destination: KSBP San Luis Co Regl
United States
More flights between these airports :: More routes between these airports
Route: +MUELR4 FIXIT MQO
File this flight plan on PilotEdge
Remarks:
Altitude:
(Current/Filed)
20,000ft
Speed:
(Current/Filed)
300kts
Departed: 31-Jul-20 06:42 PM
Arrived: 31-Jul-20 07:19 PM
Distance/Time
Traveled:
135nm/0:37
Distance/Time
To Go:
Arrived

Flight Plot

Page will automatically refresh every two minutes.


Map Options




Map Legend


Flown Route
Filed Route
Departure Airport
Arrival Airport
Navaid (VOR, NDB)
Fix

Horizontal Profiles

Position Reports

Time Latitude Longitude Heading Altitude Ground
Speed
31-Jul-20 18:11 33.932685 -118.398058 354 119ft 0kts
31-Jul-20 18:12 33.932685 -118.398058 354 119ft 0kts
31-Jul-20 18:13 33.932685 -118.398058 354 119ft 0kts
31-Jul-20 18:14 33.932685 -118.398058 354 119ft 0kts
31-Jul-20 18:15 33.932685 -118.398058 354 119ft 0kts
31-Jul-20 18:16 33.932685 -118.398058 354 119ft 0kts
31-Jul-20 18:17 33.932685 -118.398058 354 119ft 0kts
31-Jul-20 18:18 33.932685 -118.398058 354 119ft 0kts
31-Jul-20 18:19 33.932685 -118.398058 354 119ft 0kts
31-Jul-20 18:20 33.932685 -118.398058 354 119ft 0kts
31-Jul-20 18:21 33.932685 -118.398058 354 119ft 0kts
31-Jul-20 18:22 33.932685 -118.398058 354 119ft 0kts
31-Jul-20 18:23 33.932685 -118.398058 354 119ft 0kts
31-Jul-20 18:24 33.932685 -118.398058 354 119ft 0kts
31-Jul-20 18:25 33.932685 -118.398058 354 119ft 0kts
31-Jul-20 18:26 33.932685 -118.398058 354 119ft 0kts
31-Jul-20 18:27 33.932685 -118.398058 354 119ft 0kts
31-Jul-20 18:28 33.932685 -118.398058 354 119ft 0kts
31-Jul-20 18:29 33.932685 -118.398058 354 119ft 0kts
31-Jul-20 18:30 33.932685 -118.398058 354 119ft 0kts
31-Jul-20 18:31 33.932685 -118.398058 354 119ft 0kts
31-Jul-20 18:32 33.932685 -118.398058 354 119ft 0kts
31-Jul-20 18:33 33.932686 -118.398058 353 119ft 0kts
31-Jul-20 18:34 33.933372 -118.398151 356 117ft 1kts
31-Jul-20 18:35 33.933934 -118.398210 354 114ft 8kts
31-Jul-20 18:36 33.934950 -118.394342 83 106ft 26kts
31-Jul-20 18:37 33.935715 -118.386865 83 102ft 17kts
31-Jul-20 18:38 33.936282 -118.382914 31 99ft 5kts
31-Jul-20 18:39 33.936384 -118.382870 9 99ft 0kts
31-Jul-20 18:40 33.936629 -118.382847 0 99ft 5kts
31-Jul-20 18:41 33.936137 -118.393417 262 229ft 125kts
31-Jul-20 18:42 33.931153 -118.443190 262 2096ft 194kts
31-Jul-20 18:43 33.928074 -118.508535 268 3612ft 222kts
31-Jul-20 18:44 33.923426 -118.557638 267 4662ft 231kts
31-Jul-20 18:45 33.919878 -118.602448 265 5805ft 231kts
31-Jul-20 18:46 33.917103 -118.676407 269 7609ft 240kts
31-Jul-20 18:47 33.915969 -118.758937 268 9616ft 249kts
31-Jul-20 18:48 33.914688 -118.849760 269 10015ft 293kts
31-Jul-20 18:49 33.950236 -118.938854 300 10018ft 298kts
31-Jul-20 18:50 33.997274 -119.021122 309 10007ft 299kts
31-Jul-20 18:51 34.050212 -119.097940 309 10008ft 299kts
31-Jul-20 18:52 34.103117 -119.174819 310 10008ft 298kts
31-Jul-20 18:53 34.154572 -119.249706 309 10008ft 298kts
31-Jul-20 18:54 34.207488 -119.326933 309 10009ft 298kts
31-Jul-20 18:55 34.260365 -119.404272 309 10008ft 298kts
31-Jul-20 18:56 34.312805 -119.481139 309 10006ft 298kts
31-Jul-20 18:57 34.365396 -119.558399 310 10002ft 299kts
31-Jul-20 18:58 34.418157 -119.636070 309 10000ft 300kts
31-Jul-20 18:59 34.470816 -119.713766 309 9999ft 300kts
31-Jul-20 19:00 34.524487 -119.790565 312 10002ft 300kts
31-Jul-20 19:01 34.581045 -119.864955 312 10025ft 300kts
31-Jul-20 19:02 34.637543 -119.939365 312 10041ft 300kts
31-Jul-20 19:03 34.694006 -120.013901 312 10054ft 300kts
31-Jul-20 19:04 34.750522 -120.088651 312 10056ft 300kts
31-Jul-20 19:05 34.804285 -120.159918 312 9391ft 276kts
31-Jul-20 19:06 34.855310 -120.227700 312 8885ft 266kts
31-Jul-20 19:07 34.903492 -120.291802 312 8179ft 250kts
31-Jul-20 19:08 34.949366 -120.352950 312 6969ft 241kts
31-Jul-20 19:09 34.994549 -120.411267 329 5907ft 230kts
31-Jul-20 19:10 35.050921 -120.443760 341 4234ft 211kts
31-Jul-20 19:11 35.098771 -120.471204 330 3131ft 165kts
31-Jul-20 19:12 35.135669 -120.497424 326 2565ft 154kts
31-Jul-20 19:13 35.166644 -120.524562 317 2028ft 115kts
31-Jul-20 19:14 35.187211 -120.554362 308 1657ft 111kts
31-Jul-20 19:15 35.204384 -120.583550 308 1193ft 78kts
31-Jul-20 19:16 35.215600 -120.603525 305 805ft 70kts
31-Jul-20 19:17 35.226708 -120.622453 308 436ft 65kts
31-Jul-20 19:18 35.236372 -120.639344 304 200ft 13kts
31-Jul-20 19:19 35.237787 -120.639608 70 202ft 5kts
31-Jul-20 19:20 35.238443 -120.639067 271 202ft 0kts
31-Jul-20 19:21 35.238443 -120.639067 271 202ft 0kts

Navigation Log

Ident Type
Flight plan parsing failed, navigation log unavailable